sensor_id;sensor_type;location;lat;lon;timestamp;temperature;humidity
35377;DHT22;21480;51.642;4.834;2022-11-10T00:00:19;9.20;99.90
35377;DHT22;21480;51.642;4.834;2022-11-10T00:02:45;9.30;99.90
35377;DHT22;21480;51.642;4.834;2022-11-10T00:05:12;9.30;99.90
35377;DHT22;21480;51.642;4.834;2022-11-10T00:07:39;9.30;99.90
35377;DHT22;21480;51.642;4.834;2022-11-10T00:10:05;9.30;99.90
35377;DHT22;21480;51.642;4.834;2022-11-10T00:12:32;9.30;99.90
35377;DHT22;21480;51.642;4.834;2022-11-10T00:14:58;9.30;99.90
35377;DHT22;21480;51.642;4.834;2022-11-10T00:17:43;9.30;99.90
35377;DHT22;21480;51.642;4.834;2022-11-10T00:20:09;9.20;99.90
35377;DHT22;21480;51.642;4.834;2022-11-10T00:22:36;9.20;99.90
35377;DHT22;21480;51.642;4.834;2022-11-10T00:25:03;9.20;99.90
35377;DHT22;21480;51.642;4.834;2022-11-10T00:27:31;9.20;99.90
35377;DHT22;21480;51.642;4.834;2022-11-10T00:29:58;9.20;99.90
35377;DHT22;21480;51.642;4.834;2022-11-10T00:32:23;9.10;99.90
35377;DHT22;21480;51.642;4.834;2022-11-10T00:34:49;9.10;99.90
35377;DHT22;21480;51.642;4.834;2022-11-10T00:37:15;9.20;99.90
35377;DHT22;21480;51.642;4.834;2022-11-10T00:39:41;9.20;99.90
35377;DHT22;21480;51.642;4.834;2022-11-10T00:42:06;9.20;99.90
35377;DHT22;21480;51.642;4.834;2022-11-10T00:44:32;9.20;99.90
35377;DHT22;21480;51.642;4.834;2022-11-10T00:46:58;9.20;99.90
35377;DHT22;21480;51.642;4.834;2022-11-10T00:49:24;9.30;99.90
35377;DHT22;21480;51.642;4.834;2022-11-10T00:51:50;9.30;99.90
35377;DHT22;21480;51.642;4.834;2022-11-10T00:54:16;9.40;99.90
35377;DHT22;21480;51.642;4.834;2022-11-10T00:56:42;9.40;99.90
35377;DHT22;21480;51.642;4.834;2022-11-10T00:59:07;9.30;99.90
35377;DHT22;21480;51.642;4.834;2022-11-10T01:01:33;9.40;99.90
35377;DHT22;21480;51.642;4.834;2022-11-10T01:03:59;9.40;99.90
35377;DHT22;21480;51.642;4.834;2022-11-10T01:06:25;9.40;99.90
35377;DHT22;21480;51.642;4.834;2022-11-10T01:08:51;9.30;99.90
35377;DHT22;21480;51.642;4.834;2022-11-10T01:11:22;9.30;99.90
35377;DHT22;21480;51.642;4.834;2022-11-10T01:13:50;9.30;99.90
35377;DHT22;21480;51.642;4.834;2022-11-10T01:16:20;9.30;99.90
35377;DHT22;21480;51.642;4.834;2022-11-10T01:18:54;9.30;99.90
35377;DHT22;21480;51.642;4.834;2022-11-10T01:21:21;9.30;99.90
35377;DHT22;21480;51.642;4.834;2022-11-10T01:23:47;9.30;99.90
35377;DHT22;21480;51.642;4.834;2022-11-10T01:26:14;9.30;99.90
35377;DHT22;21480;51.642;4.834;2022-11-10T01:28:40;9.20;99.90
35377;DHT22;21480;51.642;4.834;2022-11-10T01:31:12;9.20;99.90
35377;DHT22;21480;51.642;4.834;2022-11-10T01:33:38;9.20;99.90
35377;DHT22;21480;51.642;4.834;2022-11-10T01:36:05;9.10;99.90
35377;DHT22;21480;51.642;4.834;2022-11-10T01:38:33;9.20;99.90
35377;DHT22;21480;51.642;4.834;2022-11-10T01:41:00;9.20;99.90
35377;DHT22;21480;51.642;4.834;2022-11-10T01:43:27;9.20;99.90
35377;DHT22;21480;51.642;4.834;2022-11-10T01:45:59;9.10;99.90
35377;DHT22;21480;51.642;4.834;2022-11-10T01:48:54;9.10;99.90
35377;DHT22;21480;51.642;4.834;2022-11-10T01:53:57;9.10;99.90
35377;DHT22;21480;51.642;4.834;2022-11-10T01:56:25;9.10;99.90
35377;DHT22;21480;51.642;4.834;2022-11-10T01:58:56;9.10;99.90
35377;DHT22;21480;51.642;4.834;2022-11-10T02:01:23;9.10;99.90
35377;DHT22;21480;51.642;4.834;2022-11-10T02:03:50;9.10;99.90
35377;DHT22;21480;51.642;4.834;2022-11-10T02:06:17;9.10;99.90
35377;DHT22;21480;51.642;4.834;2022-11-10T02:08:44;9.10;99.90
35377;DHT22;21480;51.642;4.834;2022-11-10T02:11:11;9.00;99.90
35377;DHT22;21480;51.642;4.834;2022-11-10T02:13:37;9.00;99.90
35377;DHT22;21480;51.642;4.834;2022-11-10T02:16:03;8.90;99.90
35377;DHT22;21480;51.642;4.834;2022-11-10T02:18:29;9.00;99.90
35377;DHT22;21480;51.642;4.834;2022-11-10T02:20:55;9.00;99.90
35377;DHT22;21480;51.642;4.834;2022-11-10T02:25:56;9.00;99.90
35377;DHT22;21480;51.642;4.834;2022-11-10T02:28:23;9.00;99.90
35377;DHT22;21480;51.642;4.834;2022-11-10T02:30:50;9.00;99.90
35377;DHT22;21480;51.642;4.834;2022-11-10T02:33:16;8.90;99.90
35377;DHT22;21480;51.642;4.834;2022-11-10T02:35:43;8.80;99.90
35377;DHT22;21480;51.642;4.834;2022-11-10T02:38:09;8.90;99.90
35377;DHT22;21480;51.642;4.834;2022-11-10T02:40:35;8.80;99.90
35377;DHT22;21480;51.642;4.834;2022-11-10T02:43:01;8.70;99.90
35377;DHT22;21480;51.642;4.834;2022-11-10T02:45:27;8.70;99.90
35377;DHT22;21480;51.642;4.834;2022-11-10T02:47:53;8.70;99.90
35377;DHT22;21480;51.642;4.834;2022-11-10T02:50:19;8.60;99.90
35377;DHT22;21480;51.642;4.834;2022-11-10T02:52:44;8.60;99.90
35377;DHT22;21480;51.642;4.834;2022-11-10T02:55:10;8.70;99.90
35377;DHT22;21480;51.642;4.834;2022-11-10T02:57:36;8.60;99.90
35377;DHT22;21480;51.642;4.834;2022-11-10T03:00:04;8.60;99.90
35377;DHT22;21480;51.642;4.834;2022-11-10T03:02:29;8.70;99.90
35377;DHT22;21480;51.642;4.834;2022-11-10T03:04:55;8.60;99.90
35377;DHT22;21480;51.642;4.834;2022-11-10T03:07:21;8.50;99.90
35377;DHT22;21480;51.642;4.834;2022-11-10T03:09:46;8.60;99.90
35377;DHT22;21480;51.642;4.834;2022-11-10T03:12:12;8.50;99.90
35377;DHT22;21480;51.642;4.834;2022-11-10T03:14:38;8.50;99.90
35377;DHT22;21480;51.642;4.834;2022-11-10T03:17:03;8.50;99.90
35377;DHT22;21480;51.642;4.834;2022-11-10T03:19:29;8.50;99.90
35377;DHT22;21480;51.642;4.834;2022-11-10T03:21:55;8.50;99.90
35377;DHT22;21480;51.642;4.834;2022-11-10T03:24:20;8.60;99.90
35377;DHT22;21480;51.642;4.834;2022-11-10T03:26:46;8.60;99.90
35377;DHT22;21480;51.642;4.834;2022-11-10T03:29:12;8.50;99.90
35377;DHT22;21480;51.642;4.834;2022-11-10T03:31:37;8.40;99.90
35377;DHT22;21480;51.642;4.834;2022-11-10T03:34:03;8.40;99.90
35377;DHT22;21480;51.642;4.834;2022-11-10T03:36:29;8.50;99.90
35377;DHT22;21480;51.642;4.834;2022-11-10T03:38:55;8.40;99.90
35377;DHT22;21480;51.642;4.834;2022-11-10T03:41:21;8.50;99.90
35377;DHT22;21480;51.642;4.834;2022-11-10T03:43:48;8.50;99.90
35377;DHT22;21480;51.642;4.834;2022-11-10T03:46:14;8.40;99.90
35377;DHT22;21480;51.642;4.834;2022-11-10T03:48:40;8.50;99.90
35377;DHT22;21480;51.642;4.834;2022-11-10T03:51:06;8.40;99.90
35377;DHT22;21480;51.642;4.834;2022-11-10T03:53:31;8.40;99.90
35377;DHT22;21480;51.642;4.834;2022-11-10T03:56:02;8.50;99.90
35377;DHT22;21480;51.642;4.834;2022-11-10T03:58:28;8.50;99.90
35377;DHT22;21480;51.642;4.834;2022-11-10T04:00:54;8.50;99.90
35377;DHT22;21480;51.642;4.834;2022-11-10T04:03:20;8.60;99.90
35377;DHT22;21480;51.642;4.834;2022-11-10T04:05:46;8.50;99.90
35377;DHT22;21480;51.642;4.834;2022-11-10T04:08:30;8.50;99.90
35377;DHT22;21480;51.642;4.834;2022-11-10T04:11:14;8.60;99.90
35377;DHT22;21480;51.642;4.834;2022-11-10T04:14:00;8.60;99.90
35377;DHT22;21480;51.642;4.834;2022-11-10T04:16:44;8.50;99.90
35377;DHT22;21480;51.642;4.834;2022-11-10T04:19:10;8.60;99.90
35377;DHT22;21480;51.642;4.834;2022-11-10T04:21:36;8.60;99.90
35377;DHT22;21480;51.642;4.834;2022-11-10T04:24:02;8.60;99.90
35377;DHT22;21480;51.642;4.834;2022-11-10T04:26:27;8.60;99.90
35377;DHT22;21480;51.642;4.834;2022-11-10T04:28:58;8.60;99.90
35377;DHT22;21480;51.642;4.834;2022-11-10T04:31:26;8.70;99.90
35377;DHT22;21480;51.642;4.834;2022-11-10T04:33:53;8.60;99.90
35377;DHT22;21480;51.642;4.834;2022-11-10T04:36:22;8.60;99.90
35377;DHT22;21480;51.642;4.834;2022-11-10T04:38:48;8.70;99.90
35377;DHT22;21480;51.642;4.834;2022-11-10T04:41:14;8.70;99.90
35377;DHT22;21480;51.642;4.834;2022-11-10T04:43:41;8.70;99.90
35377;DHT22;21480;51.642;4.834;2022-11-10T04:46:12;8.70;99.90
35377;DHT22;21480;51.642;4.834;2022-11-10T04:48:42;8.60;99.90
35377;DHT22;21480;51.642;4.834;2022-11-10T04:51:09;8.60;99.90
35377;DHT22;21480;51.642;4.834;2022-11-10T04:53:38;8.50;99.90
35377;DHT22;21480;51.642;4.834;2022-11-10T04:56:04;8.60;99.90
35377;DHT22;21480;51.642;4.834;2022-11-10T04:58:30;8.60;99.90
35377;DHT22;21480;51.642;4.834;2022-11-10T05:00:55;8.60;99.90
35377;DHT22;21480;51.642;4.834;2022-11-10T05:03:21;8.60;99.90
35377;DHT22;21480;51.642;4.834;2022-11-10T05:05:47;8.60;99.90
35377;DHT22;21480;51.642;4.834;2022-11-10T05:08:14;8.60;99.90
35377;DHT22;21480;51.642;4.834;2022-11-10T05:10:39;8.60;99.90
35377;DHT22;21480;51.642;4.834;2022-11-10T05:13:05;8.60;99.90
35377;DHT22;21480;51.642;4.834;2022-11-10T05:15:32;8.60;99.90
35377;DHT22;21480;51.642;4.834;2022-11-10T05:17:58;8.60;99.90
35377;DHT22;21480;51.642;4.834;2022-11-10T05:20:24;8.60;99.90
35377;DHT22;21480;51.642;4.834;2022-11-10T05:22:51;8.60;99.90
35377;DHT22;21480;51.642;4.834;2022-11-10T05:25:37;8.60;99.90
35377;DHT22;21480;51.642;4.834;2022-11-10T05:28:08;8.60;99.90
35377;DHT22;21480;51.642;4.834;2022-11-10T05:30:34;8.60;99.90
35377;DHT22;21480;51.642;4.834;2022-11-10T05:33:00;8.50;99.90
35377;DHT22;21480;51.642;4.834;2022-11-10T05:35:27;8.50;99.90
35377;DHT22;21480;51.642;4.834;2022-11-10T05:37:52;8.50;99.90
35377;DHT22;21480;51.642;4.834;2022-11-10T05:40:18;8.40;99.90
35377;DHT22;21480;51.642;4.834;2022-11-10T05:42:45;8.40;99.90
35377;DHT22;21480;51.642;4.834;2022-11-10T05:45:12;8.40;99.90
35377;DHT22;21480;51.642;4.834;2022-11-10T05:47:38;8.40;99.90
35377;DHT22;21480;51.642;4.834;2022-11-10T05:50:04;8.30;99.90
35377;DHT22;21480;51.642;4.834;2022-11-10T05:52:30;8.40;99.90
35377;DHT22;21480;51.642;4.834;2022-11-10T05:54:56;8.40;99.90
35377;DHT22;21480;51.642;4.834;2022-11-10T05:57:22;8.40;99.90
35377;DHT22;21480;51.642;4.834;2022-11-10T05:59:48;8.30;99.90
35377;DHT22;21480;51.642;4.834;2022-11-10T06:02:13;8.30;99.90
35377;DHT22;21480;51.642;4.834;2022-11-10T06:04:39;8.30;99.90
35377;DHT22;21480;51.642;4.834;2022-11-10T06:07:05;8.20;99.90
35377;DHT22;21480;51.642;4.834;2022-11-10T06:09:33;8.30;99.90
35377;DHT22;21480;51.642;4.834;2022-11-10T06:11:59;8.30;99.90
35377;DHT22;21480;51.642;4.834;2022-11-10T06:14:25;8.40;99.90
35377;DHT22;21480;51.642;4.834;2022-11-10T06:16:50;8.40;99.90
35377;DHT22;21480;51.642;4.834;2022-11-10T06:19:16;8.40;99.90
35377;DHT22;21480;51.642;4.834;2022-11-10T06:21:42;8.40;99.90
35377;DHT22;21480;51.642;4.834;2022-11-10T06:24:09;8.40;99.90
35377;DHT22;21480;51.642;4.834;2022-11-10T06:26:35;8.40;99.90
35377;DHT22;21480;51.642;4.834;2022-11-10T06:29:01;8.40;99.90
35377;DHT22;21480;51.642;4.834;2022-11-10T06:31:27;8.50;99.90
35377;DHT22;21480;51.642;4.834;2022-11-10T06:33:52;8.50;99.90
35377;DHT22;21480;51.642;4.834;2022-11-10T06:36:18;8.50;99.90
35377;DHT22;21480;51.642;4.834;2022-11-10T06:38:44;8.60;99.90
35377;DHT22;21480;51.642;4.834;2022-11-10T06:41:13;8.70;99.90
35377;DHT22;21480;51.642;4.834;2022-11-10T06:43:39;8.70;99.90
35377;DHT22;21480;51.642;4.834;2022-11-10T06:46:04;8.60;99.90
35377;DHT22;21480;51.642;4.834;2022-11-10T06:48:30;8.50;99.90
35377;DHT22;21480;51.642;4.834;2022-11-10T06:50:59;8.50;99.90
35377;DHT22;21480;51.642;4.834;2022-11-10T06:53:25;8.50;99.90
35377;DHT22;21480;51.642;4.834;2022-11-10T06:55:51;8.50;99.90
35377;DHT22;21480;51.642;4.834;2022-11-10T06:58:17;8.60;99.90
35377;DHT22;21480;51.642;4.834;2022-11-10T07:00:43;8.50;99.90
35377;DHT22;21480;51.642;4.834;2022-11-10T07:03:11;8.50;99.90
35377;DHT22;21480;51.642;4.834;2022-11-10T07:05:38;8.60;99.90
35377;DHT22;21480;51.642;4.834;2022-11-10T07:08:09;8.60;99.90
35377;DHT22;21480;51.642;4.834;2022-11-10T07:10:36;8.60;99.90
35377;DHT22;21480;51.642;4.834;2022-11-10T07:13:03;8.60;99.90
35377;DHT22;21480;51.642;4.834;2022-11-10T07:15:29;8.60;99.90
35377;DHT22;21480;51.642;4.834;2022-11-10T07:17:55;8.60;99.90
35377;DHT22;21480;51.642;4.834;2022-11-10T07:20:21;8.60;99.90
35377;DHT22;21480;51.642;4.834;2022-11-10T07:22:47;8.60;99.90
35377;DHT22;21480;51.642;4.834;2022-11-10T07:25:13;8.70;99.90
35377;DHT22;21480;51.642;4.834;2022-11-10T07:27:39;8.70;99.90
35377;DHT22;21480;51.642;4.834;2022-11-10T07:30:05;8.70;99.90
35377;DHT22;21480;51.642;4.834;2022-11-10T07:32:31;8.70;99.90
35377;DHT22;21480;51.642;4.834;2022-11-10T07:34:57;8.80;99.90
35377;DHT22;21480;51.642;4.834;2022-11-10T07:37:22;8.80;99.90
35377;DHT22;21480;51.642;4.834;2022-11-10T07:39:48;8.80;99.90
35377;DHT22;21480;51.642;4.834;2022-11-10T07:42:14;8.80;99.90
35377;DHT22;21480;51.642;4.834;2022-11-10T07:44:40;8.90;99.90
35377;DHT22;21480;51.642;4.834;2022-11-10T07:47:06;9.00;99.90
35377;DHT22;21480;51.642;4.834;2022-11-10T07:49:31;9.00;99.90
35377;DHT22;21480;51.642;4.834;2022-11-10T07:51:57;9.10;99.90
35377;DHT22;21480;51.642;4.834;2022-11-10T07:54:23;9.10;99.90
35377;DHT22;21480;51.642;4.834;2022-11-10T07:56:48;9.20;99.90
35377;DHT22;21480;51.642;4.834;2022-11-10T07:59:14;9.30;99.90
35377;DHT22;21480;51.642;4.834;2022-11-10T08:01:40;9.30;99.90
35377;DHT22;21480;51.642;4.834;2022-11-10T08:04:06;9.40;99.90
35377;DHT22;21480;51.642;4.834;2022-11-10T08:06:31;9.50;99.90
35377;DHT22;21480;51.642;4.834;2022-11-10T08:08:57;9.50;99.90
35377;DHT22;21480;51.642;4.834;2022-11-10T08:11:23;9.70;99.90
35377;DHT22;21480;51.642;4.834;2022-11-10T08:13:48;9.80;99.90
35377;DHT22;21480;51.642;4.834;2022-11-10T08:16:14;9.90;99.90
35377;DHT22;21480;51.642;4.834;2022-11-10T08:18:40;9.90;99.90
35377;DHT22;21480;51.642;4.834;2022-11-10T08:21:06;10.10;99.90
35377;DHT22;21480;51.642;4.834;2022-11-10T08:23:32;10.30;99.90
35377;DHT22;21480;51.642;4.834;2022-11-10T08:25:59;10.50;99.90
35377;DHT22;21480;51.642;4.834;2022-11-10T08:28:26;10.70;99.90
35377;DHT22;21480;51.642;4.834;2022-11-10T08:30:52;10.90;99.90
35377;DHT22;21480;51.642;4.834;2022-11-10T08:33:18;11.00;99.90
35377;DHT22;21480;51.642;4.834;2022-11-10T08:35:46;11.10;99.90
35377;DHT22;21480;51.642;4.834;2022-11-10T08:38:15;11.20;99.90
35377;DHT22;21480;51.642;4.834;2022-11-10T08:40:42;11.20;99.90
35377;DHT22;21480;51.642;4.834;2022-11-10T08:43:09;11.30;99.90
35377;DHT22;21480;51.642;4.834;2022-11-10T08:45:37;11.30;99.90
35377;DHT22;21480;51.642;4.834;2022-11-10T08:50:30;11.30;99.90
35377;DHT22;21480;51.642;4.834;2022-11-10T08:52:56;11.20;99.90
35377;DHT22;21480;51.642;4.834;2022-11-10T08:55:24;11.30;99.90
35377;DHT22;21480;51.642;4.834;2022-11-10T08:57:50;11.30;99.90
35377;DHT22;21480;51.642;4.834;2022-11-10T09:00:18;11.40;99.90
35377;DHT22;21480;51.642;4.834;2022-11-10T09:02:44;11.40;99.90
35377;DHT22;21480;51.642;4.834;2022-11-10T09:05:10;11.40;99.90
35377;DHT22;21480;51.642;4.834;2022-11-10T09:07:46;11.50;99.90
35377;DHT22;21480;51.642;4.834;2022-11-10T09:10:13;11.50;99.90
35377;DHT22;21480;51.642;4.834;2022-11-10T09:12:40;11.60;99.90
35377;DHT22;21480;51.642;4.834;2022-11-10T09:15:07;11.70;99.90
35377;DHT22;21480;51.642;4.834;2022-11-10T09:17:33;11.80;99.90
35377;DHT22;21480;51.642;4.834;2022-11-10T09:19:59;11.90;99.90
35377;DHT22;21480;51.642;4.834;2022-11-10T09:22:24;12.00;99.90
35377;DHT22;21480;51.642;4.834;2022-11-10T09:24:50;12.20;99.90
35377;DHT22;21480;51.642;4.834;2022-11-10T09:27:16;12.20;99.90
35377;DHT22;21480;51.642;4.834;2022-11-10T09:29:41;12.40;99.90
35377;DHT22;21480;51.642;4.834;2022-11-10T09:32:07;12.50;99.90
35377;DHT22;21480;51.642;4.834;2022-11-10T09:34:33;12.60;99.90
35377;DHT22;21480;51.642;4.834;2022-11-10T09:36:58;12.60;99.90
35377;DHT22;21480;51.642;4.834;2022-11-10T09:39:24;12.80;99.90
35377;DHT22;21480;51.642;4.834;2022-11-10T09:41:50;13.00;99.90
35377;DHT22;21480;51.642;4.834;2022-11-10T09:44:38;13.20;99.90
35377;DHT22;21480;51.642;4.834;2022-11-10T09:47:24;13.30;99.90
35377;DHT22;21480;51.642;4.834;2022-11-10T09:50:02;13.30;99.90
35377;DHT22;21480;51.642;4.834;2022-11-10T09:52:33;13.60;99.90
35377;DHT22;21480;51.642;4.834;2022-11-10T09:55:17;13.90;99.90
35377;DHT22;21480;51.642;4.834;2022-11-10T09:57:47;13.80;99.90
35377;DHT22;21480;51.642;4.834;2022-11-10T10:00:17;13.90;99.90
35377;DHT22;21480;51.642;4.834;2022-11-10T10:02:57;14.00;99.90
35377;DHT22;21480;51.642;4.834;2022-11-10T10:05:49;14.20;99.90
35377;DHT22;21480;51.642;4.834;2022-11-10T10:24:39;14.80;99.90
35377;DHT22;21480;51.642;4.834;2022-11-10T10:27:08;15.00;99.90
35377;DHT22;21480;51.642;4.834;2022-11-10T10:29:40;15.20;99.90
35377;DHT22;21480;51.642;4.834;2022-11-10T10:32:13;15.50;99.90
35377;DHT22;21480;51.642;4.834;2022-11-10T10:34:40;15.70;99.90
35377;DHT22;21480;51.642;4.834;2022-11-10T10:37:48;16.00;99.90
35377;DHT22;21480;51.642;4.834;2022-11-10T10:40:22;15.90;99.90
35377;DHT22;21480;51.642;4.834;2022-11-10T10:42:49;16.20;99.90
35377;DHT22;21480;51.642;4.834;2022-11-10T10:45:21;16.50;99.90
35377;DHT22;21480;51.642;4.834;2022-11-10T10:47:52;16.80;99.90
35377;DHT22;21480;51.642;4.834;2022-11-10T10:50:26;16.80;99.90
35377;DHT22;21480;51.642;4.834;2022-11-10T10:53:11;17.00;99.90
35377;DHT22;21480;51.642;4.834;2022-11-10T10:55:37;17.40;99.90
35377;DHT22;21480;51.642;4.834;2022-11-10T11:00:45;17.30;99.90
35377;DHT22;21480;51.642;4.834;2022-11-10T11:03:21;17.10;99.90
35377;DHT22;21480;51.642;4.834;2022-11-10T11:11:26;16.70;99.90
35377;DHT22;21480;51.642;4.834;2022-11-10T11:13:52;16.70;99.90
35377;DHT22;21480;51.642;4.834;2022-11-10T11:16:18;16.70;99.90
35377;DHT22;21480;51.642;4.834;2022-11-10T11:18:44;17.00;99.90
35377;DHT22;21480;51.642;4.834;2022-11-10T11:21:29;17.20;99.90
35377;DHT22;21480;51.642;4.834;2022-11-10T11:24:08;17.10;99.90
35377;DHT22;21480;51.642;4.834;2022-11-10T11:26:58;16.80;99.90
35377;DHT22;21480;51.642;4.834;2022-11-10T11:30:07;16.60;99.90
35377;DHT22;21480;51.642;4.834;2022-11-10T11:45:58;17.40;99.90
35377;DHT22;21480;51.642;4.834;2022-11-10T11:49:03;17.20;99.90
35377;DHT22;21480;51.642;4.834;2022-11-10T12:00:15;17.20;99.90
35377;DHT22;21480;51.642;4.834;2022-11-10T12:08:22;17.90;99.90
35377;DHT22;21480;51.642;4.834;2022-11-10T12:16:08;18.40;99.90
35377;DHT22;21480;51.642;4.834;2022-11-10T12:18:44;18.20;99.90
35377;DHT22;21480;51.642;4.834;2022-11-10T12:21:17;18.20;99.90
35377;DHT22;21480;51.642;4.834;2022-11-10T12:29:31;17.90;99.90
35377;DHT22;21480;51.642;4.834;2022-11-10T12:32:18;17.90;99.90
35377;DHT22;21480;51.642;4.834;2022-11-10T12:35:06;17.70;99.90
35377;DHT22;21480;51.642;4.834;2022-11-10T12:37:47;17.70;99.90
35377;DHT22;21480;51.642;4.834;2022-11-10T12:40:17;17.70;99.90
35377;DHT22;21480;51.642;4.834;2022-11-10T12:42:46;17.60;99.90
35377;DHT22;21480;51.642;4.834;2022-11-10T12:45:23;17.20;99.90
35377;DHT22;21480;51.642;4.834;2022-11-10T12:47:50;17.30;99.90
35377;DHT22;21480;51.642;4.834;2022-11-10T12:53:25;16.90;99.90
35377;DHT22;21480;51.642;4.834;2022-11-10T12:56:01;16.90;99.90
35377;DHT22;21480;51.642;4.834;2022-11-10T12:58:29;16.90;99.90
35377;DHT22;21480;51.642;4.834;2022-11-10T13:00:59;16.80;99.90
35377;DHT22;21480;51.642;4.834;2022-11-10T13:03:29;16.80;99.90
35377;DHT22;21480;51.642;4.834;2022-11-10T13:06:08;16.60;99.90
35377;DHT22;21480;51.642;4.834;2022-11-10T13:08:50;16.60;99.90
35377;DHT22;21480;51.642;4.834;2022-11-10T13:14:19;17.50;99.90
35377;DHT22;21480;51.642;4.834;2022-11-10T13:16:45;18.20;99.90
35377;DHT22;21480;51.642;4.834;2022-11-10T13:24:21;18.90;99.90
35377;DHT22;21480;51.642;4.834;2022-11-10T13:26:50;18.80;99.90
35377;DHT22;21480;51.642;4.834;2022-11-10T13:34:34;18.00;99.90
35377;DHT22;21480;51.642;4.834;2022-11-10T13:37:00;18.10;99.90
35377;DHT22;21480;51.642;4.834;2022-11-10T13:39:33;17.50;99.90
35377;DHT22;21480;51.642;4.834;2022-11-10T13:42:12;17.40;99.90
35377;DHT22;21480;51.642;4.834;2022-11-10T13:44:40;17.50;99.90
35377;DHT22;21480;51.642;4.834;2022-11-10T13:52:32;16.60;99.90
35377;DHT22;21480;51.642;4.834;2022-11-10T13:55:20;16.40;99.90
35377;DHT22;21480;51.642;4.834;2022-11-10T13:58:04;16.50;99.90
35377;DHT22;21480;51.642;4.834;2022-11-10T14:00:32;16.40;99.90
35377;DHT22;21480;51.642;4.834;2022-11-10T14:03:02;16.50;99.90
35377;DHT22;21480;51.642;4.834;2022-11-10T14:08:11;16.30;99.90
35377;DHT22;21480;51.642;4.834;2022-11-10T14:10:46;16.50;99.90
35377;DHT22;21480;51.642;4.834;2022-11-10T14:13:18;16.50;99.90
35377;DHT22;21480;51.642;4.834;2022-11-10T14:15:46;16.30;99.90
35377;DHT22;21480;51.642;4.834;2022-11-10T14:20:56;16.30;99.90
35377;DHT22;21480;51.642;4.834;2022-11-10T14:23:48;16.70;99.90
35377;DHT22;21480;51.642;4.834;2022-11-10T14:26:28;17.10;99.90
35377;DHT22;21480;51.642;4.834;2022-11-10T14:28:56;17.20;99.90
35377;DHT22;21480;51.642;4.834;2022-11-10T14:31:24;17.20;99.90
35377;DHT22;21480;51.642;4.834;2022-11-10T14:33:54;17.20;99.90
35377;DHT22;21480;51.642;4.834;2022-11-10T14:36:21;17.10;99.90
35377;DHT22;21480;51.642;4.834;2022-11-10T14:38:47;16.70;99.90
35377;DHT22;21480;51.642;4.834;2022-11-10T14:41:23;16.20;99.90
35377;DHT22;21480;51.642;4.834;2022-11-10T14:44:04;15.90;99.90
35377;DHT22;21480;51.642;4.834;2022-11-10T14:46:30;15.60;99.90
35377;DHT22;21480;51.642;4.834;2022-11-10T14:48:59;15.40;99.90
35377;DHT22;21480;51.642;4.834;2022-11-10T14:51:27;15.20;99.90
35377;DHT22;21480;51.642;4.834;2022-11-10T14:53:54;15.00;99.90
35377;DHT22;21480;51.642;4.834;2022-11-10T14:58:53;14.80;99.90
35377;DHT22;21480;51.642;4.834;2022-11-10T15:01:28;14.70;99.90
35377;DHT22;21480;51.642;4.834;2022-11-10T15:04:01;14.70;99.90
35377;DHT22;21480;51.642;4.834;2022-11-10T15:06:29;14.60;99.90
35377;DHT22;21480;51.642;4.834;2022-11-10T15:08:55;14.50;99.90
35377;DHT22;21480;51.642;4.834;2022-11-10T15:11:46;14.40;99.90
35377;DHT22;21480;51.642;4.834;2022-11-10T15:14:42;14.30;99.90
35377;DHT22;21480;51.642;4.834;2022-11-10T15:17:12;14.20;99.90
35377;DHT22;21480;51.642;4.834;2022-11-10T15:22:20;14.00;99.90
35377;DHT22;21480;51.642;4.834;2022-11-10T15:24:47;13.90;99.90
35377;DHT22;21480;51.642;4.834;2022-11-10T15:29:49;13.80;99.90
35377;DHT22;21480;51.642;4.834;2022-11-10T15:32:18;13.70;99.90
35377;DHT22;21480;51.642;4.834;2022-11-10T15:34:46;13.60;99.90
35377;DHT22;21480;51.642;4.834;2022-11-10T15:37:23;13.60;99.90
35377;DHT22;21480;51.642;4.834;2022-11-10T15:39:51;13.50;99.90
35377;DHT22;21480;51.642;4.834;2022-11-10T15:42:22;13.40;99.90
35377;DHT22;21480;51.642;4.834;2022-11-10T15:44:48;13.30;99.90
35377;DHT22;21480;51.642;4.834;2022-11-10T15:47:16;13.30;99.90
35377;DHT22;21480;51.642;4.834;2022-11-10T15:49:43;13.20;99.90
35377;DHT22;21480;51.642;4.834;2022-11-10T15:52:14;13.00;99.90
35377;DHT22;21480;51.642;4.834;2022-11-10T15:54:41;13.00;99.90
35377;DHT22;21480;51.642;4.834;2022-11-10T15:57:18;12.90;99.90
35377;DHT22;21480;51.642;4.834;2022-11-10T15:59:44;12.90;99.90
35377;DHT22;21480;51.642;4.834;2022-11-10T16:02:24;12.80;99.90
35377;DHT22;21480;51.642;4.834;2022-11-10T16:04:51;12.90;99.90
35377;DHT22;21480;51.642;4.834;2022-11-10T16:07:19;12.80;99.90
35377;DHT22;21480;51.642;4.834;2022-11-10T16:09:46;12.70;99.90
35377;DHT22;21480;51.642;4.834;2022-11-10T16:12:18;12.60;99.90
35377;DHT22;21480;51.642;4.834;2022-11-10T16:14:51;12.60;99.90
35377;DHT22;21480;51.642;4.834;2022-11-10T16:17:17;12.50;99.90
35377;DHT22;21480;51.642;4.834;2022-11-10T16:19:45;12.40;99.90
35377;DHT22;21480;51.642;4.834;2022-11-10T16:22:11;12.30;99.90
35377;DHT22;21480;51.642;4.834;2022-11-10T16:24:38;12.30;99.90
35377;DHT22;21480;51.642;4.834;2022-11-10T16:27:10;12.30;99.90
35377;DHT22;21480;51.642;4.834;2022-11-10T16:29:37;12.10;99.90
35377;DHT22;21480;51.642;4.834;2022-11-10T16:32:03;12.10;99.90
35377;DHT22;21480;51.642;4.834;2022-11-10T16:34:29;12.10;99.90
35377;DHT22;21480;51.642;4.834;2022-11-10T16:36:54;12.10;99.90
35377;DHT22;21480;51.642;4.834;2022-11-10T16:39:20;12.00;99.90
35377;DHT22;21480;51.642;4.834;2022-11-10T16:41:46;11.90;99.90
35377;DHT22;21480;51.642;4.834;2022-11-10T16:44:13;11.90;99.90
35377;DHT22;21480;51.642;4.834;2022-11-10T16:46:41;11.80;99.90
35377;DHT22;21480;51.642;4.834;2022-11-10T16:49:27;11.80;99.90
35377;DHT22;21480;51.642;4.834;2022-11-10T16:51:53;11.90;99.90
35377;DHT22;21480;51.642;4.834;2022-11-10T16:54:18;11.80;99.90
35377;DHT22;21480;51.642;4.834;2022-11-10T16:56:44;11.70;99.90
35377;DHT22;21480;51.642;4.834;2022-11-10T16:59:10;11.60;99.90
35377;DHT22;21480;51.642;4.834;2022-11-10T17:01:36;11.60;99.90
35377;DHT22;21480;51.642;4.834;2022-11-10T17:04:07;11.70;99.90
35377;DHT22;21480;51.642;4.834;2022-11-10T17:06:34;11.70;99.90
35377;DHT22;21480;51.642;4.834;2022-11-10T17:09:23;11.60;99.90
35377;DHT22;21480;51.642;4.834;2022-11-10T17:11:49;11.70;99.90
35377;DHT22;21480;51.642;4.834;2022-11-10T17:14:15;11.70;99.90
35377;DHT22;21480;51.642;4.834;2022-11-10T17:16:43;11.80;99.90
35377;DHT22;21480;51.642;4.834;2022-11-10T17:19:16;11.80;99.90
35377;DHT22;21480;51.642;4.834;2022-11-10T17:21:43;11.80;99.90
35377;DHT22;21480;51.642;4.834;2022-11-10T17:24:13;11.70;99.90
35377;DHT22;21480;51.642;4.834;2022-11-10T17:26:40;11.80;99.90
35377;DHT22;21480;51.642;4.834;2022-11-10T17:29:07;11.80;99.90
35377;DHT22;21480;51.642;4.834;2022-11-10T17:31:34;11.80;99.90
35377;DHT22;21480;51.642;4.834;2022-11-10T17:34:00;11.70;99.90
35377;DHT22;21480;51.642;4.834;2022-11-10T17:36:25;11.70;99.90